sensor_id;sensor_type;location;lat;lon;timestamp;P1;durP1;ratioP1;P2;durP2;ratioP2
61330;SDS011;71993;52.478;-1.918;2024-02-15T00:03:55;3.50;;;2.42;;
61330;SDS011;71993;52.478;-1.918;2024-02-15T00:06:24;3.47;;;2.67;;
61330;SDS011;71993;52.478;-1.918;2024-02-15T00:08:55;3.42;;;2.50;;
61330;SDS011;71993;52.478;-1.918;2024-02-15T00:11:24;3.45;;;2.40;;
61330;SDS011;71993;52.478;-1.918;2024-02-15T00:14:14;2.80;;;2.40;;
61330;SDS011;71993;52.478;-1.918;2024-02-15T00:17:04;3.70;;;2.42;;
61330;SDS011;71993;52.478;-1.918;2024-02-15T00:19:53;3.03;;;2.55;;
61330;SDS011;71993;52.478;-1.918;2024-02-15T00:24:54;2.97;;;2.30;;
61330;SDS011;71993;52.478;-1.918;2024-02-15T00:27:24;3.42;;;2.45;;
61330;SDS011;71993;52.478;-1.918;2024-02-15T00:32:42;3.22;;;2.22;;
61330;SDS011;71993;52.478;-1.918;2024-02-15T00:35:32;3.33;;;2.20;;
61330;SDS011;71993;52.478;-1.918;2024-02-15T00:38:01;2.15;;;1.88;;
61330;SDS011;71993;52.478;-1.918;2024-02-15T00:40:54;3.10;;;2.05;;
61330;SDS011;71993;52.478;-1.918;2024-02-15T00:43:43;3.15;;;2.13;;
61330;SDS011;71993;52.478;-1.918;2024-02-15T00:49:00;2.50;;;1.90;;
61330;SDS011;71993;52.478;-1.918;2024-02-15T00:51:51;2.97;;;2.00;;
61330;SDS011;71993;52.478;-1.918;2024-02-15T00:57:11;2.13;;;1.88;;
61330;SDS011;71993;52.478;-1.918;2024-02-15T00:59:40;2.10;;;1.63;;
61330;SDS011;71993;52.478;-1.918;2024-02-15T01:04:58;2.45;;;1.70;;
61330;SDS011;71993;52.478;-1.918;2024-02-15T01:09:55;1.55;;;1.45;;
61330;SDS011;71993;52.478;-1.918;2024-02-15T01:12:47;2.08;;;1.60;;
61330;SDS011;71993;52.478;-1.918;2024-02-15T01:15:36;2.42;;;1.77;;
61330;SDS011;71993;52.478;-1.918;2024-02-15T01:18:07;2.05;;;1.58;;
61330;SDS011;71993;52.478;-1.918;2024-02-15T01:20:55;2.20;;;1.58;;
61330;SDS011;71993;52.478;-1.918;2024-02-15T01:26:13;1.90;;;1.40;;
61330;SDS011;71993;52.478;-1.918;2024-02-15T01:31:34;2.45;;;1.50;;
61330;SDS011;71993;52.478;-1.918;2024-02-15T01:34:24;1.75;;;1.38;;
61330;SDS011;71993;52.478;-1.918;2024-02-15T01:37:13;4.78;;;1.40;;
61330;SDS011;71993;52.478;-1.918;2024-02-15T01:40:03;1.40;;;1.30;;
61330;SDS011;71993;52.478;-1.918;2024-02-15T01:42:52;2.63;;;1.30;;
61330;SDS011;71993;52.478;-1.918;2024-02-15T01:45:41;1.80;;;1.40;;
61330;SDS011;71993;52.478;-1.918;2024-02-15T01:48:15;2.25;;;1.40;;
61330;SDS011;71993;52.478;-1.918;2024-02-15T01:51:04;2.05;;;1.20;;
61330;SDS011;71993;52.478;-1.918;2024-02-15T01:53:34;1.80;;;1.30;;
61330;SDS011;71993;52.478;-1.918;2024-02-15T01:56:23;1.98;;;1.23;;
61330;SDS011;71993;52.478;-1.918;2024-02-15T01:58:55;1.40;;;1.20;;
61330;SDS011;71993;52.478;-1.918;2024-02-15T02:04:36;3.03;;;1.13;;
61330;SDS011;71993;52.478;-1.918;2024-02-15T02:07:25;2.17;;;1.10;;
61330;SDS011;71993;52.478;-1.918;2024-02-15T02:12:44;2.38;;;1.10;;
61330;SDS011;71993;52.478;-1.918;2024-02-15T02:15:13;1.95;;;1.10;;
61330;SDS011;71993;52.478;-1.918;2024-02-15T02:18:02;1.40;;;1.00;;
61330;SDS011;71993;52.478;-1.918;2024-02-15T02:20:34;2.53;;;1.05;;
61330;SDS011;71993;52.478;-1.918;2024-02-15T02:23:05;1.20;;;1.00;;
61330;SDS011;71993;52.478;-1.918;2024-02-15T02:25:38;1.70;;;1.02;;
61330;SDS011;71993;52.478;-1.918;2024-02-15T02:28:28;1.58;;;0.85;;
61330;SDS011;71993;52.478;-1.918;2024-02-15T02:30:57;1.27;;;1.00;;
61330;SDS011;71993;52.478;-1.918;2024-02-15T02:33:26;1.40;;;1.00;;
61330;SDS011;71993;52.478;-1.918;2024-02-15T02:36:15;1.38;;;1.00;;
61330;SDS011;71993;52.478;-1.918;2024-02-15T02:41:18;0.90;;;0.75;;
61330;SDS011;71993;52.478;-1.918;2024-02-15T02:43:49;0.90;;;0.80;;
61330;SDS011;71993;52.478;-1.918;2024-02-15T02:46:38;1.15;;;0.90;;
61330;SDS011;71993;52.478;-1.918;2024-02-15T02:49:26;1.00;;;0.80;;
61330;SDS011;71993;52.478;-1.918;2024-02-15T02:54:44;2.03;;;0.80;;
61330;SDS011;71993;52.478;-1.918;2024-02-15T02:57:15;1.30;;;0.90;;
61330;SDS011;71993;52.478;-1.918;2024-02-15T02:59:44;1.00;;;0.80;;
61330;SDS011;71993;52.478;-1.918;2024-02-15T03:05:03;1.15;;;0.90;;
61330;SDS011;71993;52.478;-1.918;2024-02-15T03:07:52;1.30;;;0.90;;
61330;SDS011;71993;52.478;-1.918;2024-02-15T03:10:21;0.60;;;0.60;;
61330;SDS011;71993;52.478;-1.918;2024-02-15T03:12:53;1.17;;;0.80;;
61330;SDS011;71993;52.478;-1.918;2024-02-15T03:15:44;0.80;;;0.73;;
61330;SDS011;71993;52.478;-1.918;2024-02-15T03:18:14;1.67;;;0.70;;
61330;SDS011;71993;52.478;-1.918;2024-02-15T03:21:03;0.88;;;0.65;;
61330;SDS011;71993;52.478;-1.918;2024-02-15T03:23:32;0.73;;;0.60;;
61330;SDS011;71993;52.478;-1.918;2024-02-15T03:26:01;0.85;;;0.65;;
61330;SDS011;71993;52.478;-1.918;2024-02-15T03:28:54;0.90;;;0.70;;
61330;SDS011;71993;52.478;-1.918;2024-02-15T03:31:43;0.82;;;0.70;;
61330;SDS011;71993;52.478;-1.918;2024-02-15T03:34:14;0.88;;;0.70;;
61330;SDS011;71993;52.478;-1.918;2024-02-15T03:37:07;0.85;;;0.60;;
61330;SDS011;71993;52.478;-1.918;2024-02-15T03:42:44;0.75;;;0.65;;
61330;SDS011;71993;52.478;-1.918;2024-02-15T03:45:35;0.50;;;0.50;;
61330;SDS011;71993;52.478;-1.918;2024-02-15T03:48:05;0.60;;;0.60;;
61330;SDS011;71993;52.478;-1.918;2024-02-15T03:50:34;0.98;;;0.60;;
61330;SDS011;71993;52.478;-1.918;2024-02-15T03:53:04;0.80;;;0.68;;
61330;SDS011;71993;52.478;-1.918;2024-02-15T03:58:22;0.50;;;0.50;;
61330;SDS011;71993;52.478;-1.918;2024-02-15T04:00:53;0.77;;;0.65;;
61330;SDS011;71993;52.478;-1.918;2024-02-15T04:03:42;0.40;;;0.40;;
61330;SDS011;71993;52.478;-1.918;2024-02-15T04:06:35;1.23;;;0.60;;
61330;SDS011;71993;52.478;-1.918;2024-02-15T04:09:26;0.50;;;0.50;;
61330;SDS011;71993;52.478;-1.918;2024-02-15T04:18:00;0.55;;;0.47;;
61330;SDS011;71993;52.478;-1.918;2024-02-15T04:20:49;0.65;;;0.60;;
61330;SDS011;71993;52.478;-1.918;2024-02-15T04:26:07;0.90;;;0.60;;
61330;SDS011;71993;52.478;-1.918;2024-02-15T04:28:59;0.47;;;0.47;;
61330;SDS011;71993;52.478;-1.918;2024-02-15T04:31:48;0.38;;;0.38;;
61330;SDS011;71993;52.478;-1.918;2024-02-15T04:34:43;0.65;;;0.50;;
61330;SDS011;71993;52.478;-1.918;2024-02-15T04:37:12;0.40;;;0.40;;
61330;SDS011;71993;52.478;-1.918;2024-02-15T04:39:42;0.57;;;0.40;;
61330;SDS011;71993;52.478;-1.918;2024-02-15T04:42:32;0.50;;;0.40;;
61330;SDS011;71993;52.478;-1.918;2024-02-15T04:45:03;0.55;;;0.50;;
61330;SDS011;71993;52.478;-1.918;2024-02-15T04:47:54;0.50;;;0.50;;
61330;SDS011;71993;52.478;-1.918;2024-02-15T04:50:50;1.40;;;0.45;;
61330;SDS011;71993;52.478;-1.918;2024-02-15T04:53:20;0.60;;;0.40;;
61330;SDS011;71993;52.478;-1.918;2024-02-15T04:55:49;0.85;;;0.50;;
61330;SDS011;71993;52.478;-1.918;2024-02-15T04:58:39;0.40;;;0.40;;
61330;SDS011;71993;52.478;-1.918;2024-02-15T05:01:31;0.50;;;0.50;;
61330;SDS011;71993;52.478;-1.918;2024-02-15T05:07:13;0.50;;;0.50;;
61330;SDS011;71993;52.478;-1.918;2024-02-15T05:09:42;0.55;;;0.40;;
61330;SDS011;71993;52.478;-1.918;2024-02-15T05:15:20;0.30;;;0.30;;
61330;SDS011;71993;52.478;-1.918;2024-02-15T05:17:50;0.43;;;0.43;;
61330;SDS011;71993;52.478;-1.918;2024-02-15T05:20:39;0.45;;;0.43;;
61330;SDS011;71993;52.478;-1.918;2024-02-15T05:23:31;1.10;;;0.50;;
61330;SDS011;71993;52.478;-1.918;2024-02-15T05:26:20;0.40;;;0.40;;
61330;SDS011;71993;52.478;-1.918;2024-02-15T05:29:09;0.40;;;0.40;;
61330;SDS011;71993;52.478;-1.918;2024-02-15T05:31:58;0.43;;;0.38;;
61330;SDS011;71993;52.478;-1.918;2024-02-15T05:34:28;0.40;;;0.40;;
61330;SDS011;71993;52.478;-1.918;2024-02-15T05:37:17;0.40;;;0.40;;
61330;SDS011;71993;52.478;-1.918;2024-02-15T05:40:10;0.40;;;0.40;;
61330;SDS011;71993;52.478;-1.918;2024-02-15T05:43:01;0.40;;;0.40;;
61330;SDS011;71993;52.478;-1.918;2024-02-15T05:45:49;0.40;;;0.40;;
61330;SDS011;71993;52.478;-1.918;2024-02-15T05:51:07;0.57;;;0.40;;
61330;SDS011;71993;52.478;-1.918;2024-02-15T05:53:56;0.63;;;0.40;;
61330;SDS011;71993;52.478;-1.918;2024-02-15T05:56:29;0.30;;;0.30;;
61330;SDS011;71993;52.478;-1.918;2024-02-15T05:58:58;0.30;;;0.30;;
61330;SDS011;71993;52.478;-1.918;2024-02-15T06:01:28;0.30;;;0.30;;
61330;SDS011;71993;52.478;-1.918;2024-02-15T06:04:17;0.30;;;0.30;;
61330;SDS011;71993;52.478;-1.918;2024-02-15T06:06:48;0.30;;;0.30;;
61330;SDS011;71993;52.478;-1.918;2024-02-15T06:12:10;0.35;;;0.30;;
61330;SDS011;71993;52.478;-1.918;2024-02-15T06:14:38;0.20;;;0.20;;
61330;SDS011;71993;52.478;-1.918;2024-02-15T06:17:07;0.30;;;0.30;;
61330;SDS011;71993;52.478;-1.918;2024-02-15T06:19:36;0.52;;;0.30;;
61330;SDS011;71993;52.478;-1.918;2024-02-15T06:22:05;0.30;;;0.30;;
61330;SDS011;71993;52.478;-1.918;2024-02-15T06:27:03;0.20;;;0.20;;
61330;SDS011;71993;52.478;-1.918;2024-02-15T06:29:54;0.30;;;0.30;;
61330;SDS011;71993;52.478;-1.918;2024-02-15T06:32:36;0.30;;;0.30;;
61330;SDS011;71993;52.478;-1.918;2024-02-15T06:35:37;0.30;;;0.30;;
61330;SDS011;71993;52.478;-1.918;2024-02-15T06:38:18;0.20;;;0.20;;
61330;SDS011;71993;52.478;-1.918;2024-02-15T06:41:20;0.20;;;0.20;;
61330;SDS011;71993;52.478;-1.918;2024-02-15T06:44:10;0.65;;;0.40;;
61330;SDS011;71993;52.478;-1.918;2024-02-15T06:46:42;0.22;;;0.22;;
61330;SDS011;71993;52.478;-1.918;2024-02-15T06:49:13;0.30;;;0.22;;
61330;SDS011;71993;52.478;-1.918;2024-02-15T06:52:02;0.20;;;0.20;;
61330;SDS011;71993;52.478;-1.918;2024-02-15T06:54:31;0.20;;;0.20;;
61330;SDS011;71993;52.478;-1.918;2024-02-15T06:57:01;0.20;;;0.20;;
61330;SDS011;71993;52.478;-1.918;2024-02-15T06:59:30;0.28;;;0.20;;
61330;SDS011;71993;52.478;-1.918;2024-02-15T07:02:23;0.32;;;0.30;;
61330;SDS011;71993;52.478;-1.918;2024-02-15T07:04:51;0.30;;;0.20;;
61330;SDS011;71993;52.478;-1.918;2024-02-15T07:07:20;0.25;;;0.20;;
61330;SDS011;71993;52.478;-1.918;2024-02-15T07:10:09;0.20;;;0.20;;
61330;SDS011;71993;52.478;-1.918;2024-02-15T07:12:39;0.63;;;0.20;;
61330;SDS011;71993;52.478;-1.918;2024-02-15T07:15:29;0.38;;;0.20;;
61330;SDS011;71993;52.478;-1.918;2024-02-15T07:18:06;0.20;;;0.20;;
61330;SDS011;71993;52.478;-1.918;2024-02-15T07:20:36;0.20;;;0.20;;
61330;SDS011;71993;52.478;-1.918;2024-02-15T07:25:34;0.20;;;0.20;;
61330;SDS011;71993;52.478;-1.918;2024-02-15T07:28:23;0.20;;;0.20;;
61330;SDS011;71993;52.478;-1.918;2024-02-15T07:30:52;0.30;;;0.20;;
61330;SDS011;71993;52.478;-1.918;2024-02-15T07:33:44;0.20;;;0.20;;
61330;SDS011;71993;52.478;-1.918;2024-02-15T07:36:32;0.20;;;0.20;;
61330;SDS011;71993;52.478;-1.918;2024-02-15T07:39:02;0.93;;;0.15;;
61330;SDS011;71993;52.478;-1.918;2024-02-15T07:41:51;0.10;;;0.10;;
61330;SDS011;71993;52.478;-1.918;2024-02-15T07:44:40;0.10;;;0.10;;
61330;SDS011;71993;52.478;-1.918;2024-02-15T07:49:41;0.20;;;0.20;;
61330;SDS011;71993;52.478;-1.918;2024-02-15T07:52:10;0.10;;;0.10;;
61330;SDS011;71993;52.478;-1.918;2024-02-15T07:57:28;0.22;;;0.22;;
61330;SDS011;71993;52.478;-1.918;2024-02-15T08:00:17;0.20;;;0.20;;
61330;SDS011;71993;52.478;-1.918;2024-02-15T08:02:46;0.15;;;0.15;;
61330;SDS011;71993;52.478;-1.918;2024-02-15T08:05:17;0.30;;;0.30;;
61330;SDS011;71993;52.478;-1.918;2024-02-15T08:07:46;0.20;;;0.20;;
61330;SDS011;71993;52.478;-1.918;2024-02-15T08:10:15;0.10;;;0.10;;
61330;SDS011;71993;52.478;-1.918;2024-02-15T08:15:34;0.52;;;0.20;;
61330;SDS011;71993;52.478;-1.918;2024-02-15T08:20:37;1.25;;;0.30;;
61330;SDS011;71993;52.478;-1.918;2024-02-15T08:23:06;0.20;;;0.20;;
61330;SDS011;71993;52.478;-1.918;2024-02-15T08:25:56;0.20;;;0.10;;
61330;SDS011;71993;52.478;-1.918;2024-02-15T08:28:25;0.25;;;0.20;;
61330;SDS011;71993;52.478;-1.918;2024-02-15T08:31:14;0.40;;;0.30;;
61330;SDS011;71993;52.478;-1.918;2024-02-15T08:33:45;0.35;;;0.30;;
61330;SDS011;71993;52.478;-1.918;2024-02-15T08:36:36;0.10;;;0.10;;
61330;SDS011;71993;52.478;-1.918;2024-02-15T08:39:05;0.20;;;0.20;;
61330;SDS011;71993;52.478;-1.918;2024-02-15T08:41:37;0.15;;;0.15;;
61330;SDS011;71993;52.478;-1.918;2024-02-15T08:44:26;0.20;;;0.20;;
61330;SDS011;71993;52.478;-1.918;2024-02-15T08:49:44;0.15;;;0.15;;
61330;SDS011;71993;52.478;-1.918;2024-02-15T08:52:35;1.45;;;0.40;;
61330;SDS011;71993;52.478;-1.918;2024-02-15T08:55:24;0.73;;;0.30;;
61330;SDS011;71993;52.478;-1.918;2024-02-15T08:58:13;0.75;;;0.40;;
61330;SDS011;71993;52.478;-1.918;2024-02-15T09:01:02;1.67;;;0.50;;
61330;SDS011;71993;52.478;-1.918;2024-02-15T09:03:53;0.63;;;0.50;;
61330;SDS011;71993;52.478;-1.918;2024-02-15T09:09:13;1.13;;;0.50;;
61330;SDS011;71993;52.478;-1.918;2024-02-15T09:11:42;2.05;;;0.50;;
61330;SDS011;71993;52.478;-1.918;2024-02-15T09:17:20;0.95;;;0.40;;
61330;SDS011;71993;52.478;-1.918;2024-02-15T09:22:38;0.40;;;0.40;;
61330;SDS011;71993;52.478;-1.918;2024-02-15T09:27:59;1.08;;;0.52;;
61330;SDS011;71993;52.478;-1.918;2024-02-15T09:30:29;0.98;;;0.52;;
61330;SDS011;71993;52.478;-1.918;2024-02-15T09:32:59;1.00;;;0.70;;
61330;SDS011;71993;52.478;-1.918;2024-02-15T09:35:29;1.35;;;0.50;;
61330;SDS011;71993;52.478;-1.918;2024-02-15T09:37:58;0.88;;;0.65;;
61330;SDS011;71993;52.478;-1.918;2024-02-15T09:40:48;1.45;;;0.55;;
61330;SDS011;71993;52.478;-1.918;2024-02-15T09:43:20;1.58;;;0.50;;
61330;SDS011;71993;52.478;-1.918;2024-02-15T09:45:52;0.70;;;0.50;;
61330;SDS011;71993;52.478;-1.918;2024-02-15T09:48:41;1.23;;;0.55;;
61330;SDS011;71993;52.478;-1.918;2024-02-15T09:51:15;0.68;;;0.50;;
61330;SDS011;71993;52.478;-1.918;2024-02-15T09:54:04;0.50;;;0.47;;
61330;SDS011;71993;52.478;-1.918;2024-02-15T09:56:35;2.13;;;0.68;;
61330;SDS011;71993;52.478;-1.918;2024-02-15T09:59:26;1.67;;;0.80;;
61330;SDS011;71993;52.478;-1.918;2024-02-15T10:01:57;1.42;;;0.60;;
61330;SDS011;71993;52.478;-1.918;2024-02-15T10:04:46;1.00;;;0.60;;
61330;SDS011;71993;52.478;-1.918;2024-02-15T10:07:36;2.20;;;0.60;;
61330;SDS011;71993;52.478;-1.918;2024-02-15T10:10:15;1.23;;;0.65;;
61330;SDS011;71993;52.478;-1.918;2024-02-15T10:12:45;1.02;;;0.60;;
61330;SDS011;71993;52.478;-1.918;2024-02-15T10:15:36;0.70;;;0.52;;
61330;SDS011;71993;52.478;-1.918;2024-02-15T10:18:26;0.63;;;0.60;;
61330;SDS011;71993;52.478;-1.918;2024-02-15T10:23:23;2.05;;;0.70;;
61330;SDS011;71993;52.478;-1.918;2024-02-15T10:26:21;1.65;;;0.75;;
61330;SDS011;71993;52.478;-1.918;2024-02-15T10:29:04;1.27;;;0.70;;
61330;SDS011;71993;52.478;-1.918;2024-02-15T10:31:38;1.30;;;0.70;;
61330;SDS011;71993;52.478;-1.918;2024-02-15T10:34:07;0.88;;;0.65;;
61330;SDS011;71993;52.478;-1.918;2024-02-15T10:36:37;1.15;;;0.73;;
61330;SDS011;71993;52.478;-1.918;2024-02-15T10:39:13;2.22;;;0.70;;
61330;SDS011;71993;52.478;-1.918;2024-02-15T10:41:45;1.70;;;0.70;;
61330;SDS011;71993;52.478;-1.918;2024-02-15T10:44:18;0.93;;;0.60;;
61330;SDS011;71993;52.478;-1.918;2024-02-15T10:46:50;2.03;;;0.90;;
61330;SDS011;71993;52.478;-1.918;2024-02-15T10:49:39;0.93;;;0.50;;
61330;SDS011;71993;52.478;-1.918;2024-02-15T10:52:29;1.45;;;0.80;;
61330;SDS011;71993;52.478;-1.918;2024-02-15T10:55:21;1.08;;;0.80;;
61330;SDS011;71993;52.478;-1.918;2024-02-15T10:58:12;1.60;;;0.90;;
61330;SDS011;71993;52.478;-1.918;2024-02-15T11:01:01;0.90;;;0.70;;
61330;SDS011;71993;52.478;-1.918;2024-02-15T11:03:55;1.45;;;0.85;;
61330;SDS011;71993;52.478;-1.918;2024-02-15T11:06:46;1.42;;;0.68;;
61330;SDS011;71993;52.478;-1.918;2024-02-15T11:09:36;1.17;;;0.80;;
61330;SDS011;71993;52.478;-1.918;2024-02-15T11:12:26;1.95;;;0.80;;
61330;SDS011;71993;52.478;-1.918;2024-02-15T11:17:59;1.35;;;0.80;;
61330;SDS011;71993;52.478;-1.918;2024-02-15T11:23:23;0.90;;;0.70;;
61330;SDS011;71993;52.478;-1.918;2024-02-15T11:25:52;1.80;;;0.80;;
61330;SDS011;71993;52.478;-1.918;2024-02-15T11:28:45;2.45;;;0.95;;
61330;SDS011;71993;52.478;-1.918;2024-02-15T11:40:11;1.80;;;0.80;;
61330;SDS011;71993;52.478;-1.918;2024-02-15T11:42:40;1.00;;;0.70;;
61330;SDS011;71993;52.478;-1.918;2024-02-15T11:45:09;1.23;;;0.80;;
61330;SDS011;71993;52.478;-1.918;2024-02-15T11:47:38;2.08;;;0.70;;
61330;SDS011;71993;52.478;-1.918;2024-02-15T11:50:09;2.45;;;0.85;;
61330;SDS011;71993;52.478;-1.918;2024-02-15T11:52:40;1.83;;;0.80;;
61330;SDS011;71993;52.478;-1.918;2024-02-15T11:55:12;1.95;;;0.95;;
61330;SDS011;71993;52.478;-1.918;2024-02-15T11:57:41;1.00;;;0.75;;
61330;SDS011;71993;52.478;-1.918;2024-02-15T12:00:21;1.80;;;0.90;;
61330;SDS011;71993;52.478;-1.918;2024-02-15T12:03:22;2.08;;;1.00;;
61330;SDS011;71993;52.478;-1.918;2024-02-15T12:06:04;1.23;;;0.80;;
61330;SDS011;71993;52.478;-1.918;2024-02-15T12:08:45;2.03;;;1.00;;
61330;SDS011;71993;52.478;-1.918;2024-02-15T12:11:29;1.55;;;0.90;;
61330;SDS011;71993;52.478;-1.918;2024-02-15T12:14:12;1.10;;;0.80;;
61330;SDS011;71993;52.478;-1.918;2024-02-15T12:17:13;1.58;;;0.88;;
61330;SDS011;71993;52.478;-1.918;2024-02-15T12:19:55;1.20;;;0.80;;
61330;SDS011;71993;52.478;-1.918;2024-02-15T12:22:44;1.48;;;0.80;;
61330;SDS011;71993;52.478;-1.918;2024-02-15T12:25:16;1.67;;;0.85;;
61330;SDS011;71993;52.478;-1.918;2024-02-15T12:28:04;1.38;;;0.88;;
61330;SDS011;71993;52.478;-1.918;2024-02-15T12:30:48;1.98;;;0.85;;
61330;SDS011;71993;52.478;-1.918;2024-02-15T12:33:23;1.15;;;0.90;;
61330;SDS011;71993;52.478;-1.918;2024-02-15T12:36:03;1.27;;;0.73;;
61330;SDS011;71993;52.478;-1.918;2024-02-15T12:38:32;1.20;;;0.80;;
61330;SDS011;71993;52.478;-1.918;2024-02-15T12:41:03;1.85;;;0.80;;
61330;SDS011;71993;52.478;-1.918;2024-02-15T12:43:35;0.90;;;0.77;;
61330;SDS011;71993;52.478;-1.918;2024-02-15T12:46:24;1.30;;;0.82;;
61330;SDS011;71993;52.478;-1.918;2024-02-15T12:49:24;1.45;;;0.80;;
61330;SDS011;71993;52.478;-1.918;2024-02-15T12:55:06;1.13;;;0.70;;
61330;SDS011;71993;52.478;-1.918;2024-02-15T12:57:35;1.00;;;0.70;;
61330;SDS011;71993;52.478;-1.918;2024-02-15T13:00:09;1.35;;;0.80;;
61330;SDS011;71993;52.478;-1.918;2024-02-15T13:02:44;1.05;;;0.73;;
61330;SDS011;71993;52.478;-1.918;2024-02-15T13:05:14;4.03;;;0.90;;
61330;SDS011;71993;52.478;-1.918;2024-02-15T13:07:44;1.65;;;0.90;;
61330;SDS011;71993;52.478;-1.918;2024-02-15T13:10:13;0.93;;;0.60;;
61330;SDS011;71993;52.478;-1.918;2024-02-15T13:12:42;0.98;;;0.70;;
61330;SDS011;71993;52.478;-1.918;2024-02-15T13:15:15;1.23;;;0.80;;
61330;SDS011;71993;52.478;-1.918;2024-02-15T13:18:07;1.23;;;0.80;;
61330;SDS011;71993;52.478;-1.918;2024-02-15T13:20:37;1.20;;;0.80;;
61330;SDS011;71993;52.478;-1.918;2024-02-15T13:23:25;1.17;;;0.77;;
61330;SDS011;71993;52.478;-1.918;2024-02-15T13:26:16;1.30;;;1.00;;
61330;SDS011;71993;52.478;-1.918;2024-02-15T13:29:06;1.38;;;0.85;;
61330;SDS011;71993;52.478;-1.918;2024-02-15T13:31:57;1.10;;;0.82;;
61330;SDS011;71993;52.478;-1.918;2024-02-15T13:34:26;2.00;;;1.02;;
61330;SDS011;71993;52.478;-1.918;2024-02-15T13:36:56;1.40;;;1.00;;
61330;SDS011;71993;52.478;-1.918;2024-02-15T13:39:45;1.58;;;0.90;;
61330;SDS011;71993;52.478;-1.918;2024-02-15T13:45:03;1.80;;;1.10;;
61330;SDS011;71993;52.478;-1.918;2024-02-15T13:47:38;1.30;;;0.90;;
61330;SDS011;71993;52.478;-1.918;2024-02-15T13:50:28;2.35;;;1.00;;
61330;SDS011;71993;52.478;-1.918;2024-02-15T13:52:57;1.98;;;1.17;;
61330;SDS011;71993;52.478;-1.918;2024-02-15T13:55:26;2.05;;;1.20;;
61330;SDS011;71993;52.478;-1.918;2024-02-15T13:58:15;2.42;;;1.08;;
61330;SDS011;71993;52.478;-1.918;2024-02-15T14:00:44;1.38;;;1.00;;
61330;SDS011;71993;52.478;-1.918;2024-02-15T14:03:16;2.03;;;1.20;;
61330;SDS011;71993;52.478;-1.918;2024-02-15T14:06:07;2.28;;;1.33;;
61330;SDS011;71993;52.478;-1.918;2024-02-15T14:08:36;2.50;;;1.40;;
61330;SDS011;71993;52.478;-1.918;2024-02-15T14:11:05;2.28;;;1.30;;
61330;SDS011;71993;52.478;-1.918;2024-02-15T14:13:34;2.13;;;1.30;;
61330;SDS011;71993;52.478;-1.918;2024-02-15T14:16:24;2.70;;;1.20;;
61330;SDS011;71993;52.478;-1.918;2024-02-15T14:19:16;2.38;;;1.27;;
61330;SDS011;71993;52.478;-1.918;2024-02-15T14:22:07;1.70;;;1.10;;
61330;SDS011;71993;52.478;-1.918;2024-02-15T14:25:02;1.70;;;1.20;;
61330;SDS011;71993;52.478;-1.918;2024-02-15T14:27:31;2.78;;;1.30;;
61330;SDS011;71993;52.478;-1.918;2024-02-15T14:30:01;2.00;;;1.30;;
61330;SDS011;71993;52.478;-1.918;2024-02-15T14:33:02;2.47;;;1.30;;
61330;SDS011;71993;52.478;-1.918;2024-02-15T14:35:59;3.17;;;1.30;;
61330;SDS011;71993;52.478;-1.918;2024-02-15T14:38:49;2.42;;;1.20;;
61330;SDS011;71993;52.478;-1.918;2024-02-15T14:41:40;1.92;;;1.13;;
61330;SDS011;71993;52.478;-1.918;2024-02-15T14:44:30;2.50;;;1.30;;
61330;SDS011;71993;52.478;-1.918;2024-02-15T14:47:00;2.58;;;1.20;;
61330;SDS011;71993;52.478;-1.918;2024-02-15T14:49:29;2.15;;;1.10;;
61330;SDS011;71993;52.478;-1.918;2024-02-15T14:55:10;2.08;;;1.20;;
61330;SDS011;71993;52.478;-1.918;2024-02-15T14:57:39;2.95;;;1.30;;
61330;SDS011;71993;52.478;-1.918;2024-02-15T15:00:08;1.60;;;1.13;;
61330;SDS011;71993;52.478;-1.918;2024-02-15T15:02:39;1.63;;;1.20;;
61330;SDS011;71993;52.478;-1.918;2024-02-15T15:05:09;2.47;;;1.33;;
61330;SDS011;71993;52.478;-1.918;2024-02-15T15:08:10;1.83;;;1.35;;
61330;SDS011;71993;52.478;-1.918;2024-02-15T15:10:54;2.80;;;1.50;;
61330;SDS011;71993;52.478;-1.918;2024-02-15T15:13:55;1.90;;;1.30;;
61330;SDS011;71993;52.478;-1.918;2024-02-15T15:18:53;2.38;;;1.30;;
61330;SDS011;71993;52.478;-1.918;2024-02-15T15:24:13;1.90;;;1.10;;
61330;SDS011;71993;52.478;-1.918;2024-02-15T15:26:59;2.00;;;1.20;;
61330;SDS011;71993;52.478;-1.918;2024-02-15T15:29:45;1.70;;;1.27;;
61330;SDS011;71993;52.478;-1.918;2024-02-15T15:34:42;2.10;;;1.33;;
61330;SDS011;71993;52.478;-1.918;2024-02-15T15:37:12;1.73;;;1.13;;
61330;SDS011;71993;52.478;-1.918;2024-02-15T15:39:41;2.17;;;1.30;;
61330;SDS011;71993;52.478;-1.918;2024-02-15T15:42:13;1.58;;;1.17;;
61330;SDS011;71993;52.478;-1.918;2024-02-15T15:44:44;1.73;;;1.20;;
61330;SDS011;71993;52.478;-1.918;2024-02-15T15:47:13;2.97;;;1.42;;
61330;SDS011;71993;52.478;-1.918;2024-02-15T15:52:32;2.90;;;1.35;;
61330;SDS011;71993;52.478;-1.918;2024-02-15T15:55:21;1.60;;;1.50;;
61330;SDS011;71993;52.478;-1.918;2024-02-15T15:58:12;1.88;;;1.30;;
61330;SDS011;71993;52.478;-1.918;2024-02-15T16:00:41;2.20;;;1.38;;
61330;SDS011;71993;52.478;-1.918;2024-02-15T16:03:30;2.65;;;1.25;;
61330;SDS011;71993;52.478;-1.918;2024-02-15T16:06:19;1.77;;;1.30;;
61330;SDS011;71993;52.478;-1.918;2024-02-15T16:11:37;2.85;;;1.25;;
61330;SDS011;71993;52.478;-1.918;2024-02-15T16:16:37;2.50;;;1.20;;
61330;SDS011;71993;52.478;-1.918;2024-02-15T16:19:08;1.98;;;1.20;;
61330;SDS011;71993;52.478;-1.918;2024-02-15T16:21:57;3.22;;;1.60;;
61330;SDS011;71993;52.478;-1.918;2024-02-15T16:24:26;1.60;;;1.30;;
61330;SDS011;71993;52.478;-1.918;2024-02-15T16:26:55;1.63;;;1.40;;
61330;SDS011;71993;52.478;-1.918;2024-02-15T16:29:24;2.03;;;1.38;;
61330;SDS011;71993;52.478;-1.918;2024-02-15T16:32:15;2.00;;;1.48;;
61330;SDS011;71993;52.478;-1.918;2024-02-15T16:35:05;1.75;;;1.20;;
61330;SDS011;71993;52.478;-1.918;2024-02-15T16:37:36;2.17;;;1.40;;
61330;SDS011;71993;52.478;-1.918;2024-02-15T16:40:08;1.77;;;1.20;;
61330;SDS011;71993;52.478;-1.918;2024-02-15T16:42:58;2.33;;;1.50;;
61330;SDS011;71993;52.478;-1.918;2024-02-15T16:45:47;1.90;;;1.40;;
61330;SDS011;71993;52.478;-1.918;2024-02-15T16:48:18;1.75;;;1.30;;
61330;SDS011;71993;52.478;-1.918;2024-02-15T16:50:47;2.30;;;1.30;;
61330;SDS011;71993;52.478;-1.918;2024-02-15T16:56:05;3.28;;;1.48;;
61330;SDS011;71993;52.478;-1.918;2024-02-15T16:58:53;3.63;;;1.52;;
61330;SDS011;71993;52.478;-1.918;2024-02-15T17:01:22;2.17;;;1.50;;
61330;SDS011;71993;52.478;-1.918;2024-02-15T17:04:14;2.00;;;1.60;;
61330;SDS011;71993;52.478;-1.918;2024-02-15T17:06:44;2.00;;;1.50;;
61330;SDS011;71993;52.478;-1.918;2024-02-15T17:12:01;1.50;;;1.20;;
61330;SDS011;71993;52.478;-1.918;2024-02-15T17:14:52;1.95;;;1.30;;
61330;SDS011;71993;52.478;-1.918;2024-02-15T17:20:32;2.17;;;1.42;;
61330;SDS011;71993;52.478;-1.918;2024-02-15T17:23:00;1.98;;;1.17;;
61330;SDS011;71993;52.478;-1.918;2024-02-15T17:28:19;1.95;;;1.30;;
61330;SDS011;71993;52.478;-1.918;2024-02-15T17:33:17;1.88;;;1.45;;
61330;SDS011;71993;52.478;-1.918;2024-02-15T17:35:49;1.60;;;1.35;;
61330;SDS011;71993;52.478;-1.918;2024-02-15T17:38:19;2.75;;;1.50;;
61330;SDS011;71993;52.478;-1.918;2024-02-15T17:41:09;2.22;;;1.40;;
61330;SDS011;71993;52.478;-1.918;2024-02-15T17:43:38;3.05;;;1.50;;
61330;SDS011;71993;52.478;-1.918;2024-02-15T17:46:06;3.58;;;1.80;;
61330;SDS011;71993;52.478;-1.918;2024-02-15T17:48:56;2.83;;;1.58;;
61330;SDS011;71993;52.478;-1.918;2024-02-15T17:51:48;2.95;;;1.50;;
61330;SDS011;71993;52.478;-1.918;2024-02-15T17:54:37;2.88;;;1.65;;
61330;SDS011;71993;52.478;-1.918;2024-02-15T17:57:06;5.78;;;1.88;;
61330;SDS011;71993;52.478;-1.918;2024-02-15T17:59:55;4.93;;;1.95;;
61330;SDS011;71993;52.478;-1.918;2024-02-15T18:02:24;5.18;;;1.90;;
61330;SDS011;71993;52.478;-1.918;2024-02-15T18:05:13;5.68;;;1.90;;
61330;SDS011;71993;52.478;-1.918;2024-02-15T18:10:33;3.05;;;1.70;;
61330;SDS011;71993;52.478;-1.918;2024-02-15T18:13:21;3.33;;;1.80;;
61330;SDS011;71993;52.478;-1.918;2024-02-15T18:15:50;3.40;;;1.58;;